Latest Weather Observations for Wilsons Promontory

IDV60801

Issued at 4:05 pm EDT Tuesday 21 October 2014 (issued every 30 minutes, with the page automatically refreshed every 10 minutes)

About weather observations | Map of weather stations | Latest weather observations for VIC | Other Formats
Station Details ID: 085096 Name: WILSONS PROMONTORY LIGHTHOUSE Lat: -39.13 Lon: 146.42 Height: 95.0 m
Data from the previous 72 hours. | See also: Recent months at Wilsons Promontory
Date/Time
EDT
Temp
°C
App
Temp
°C
Dew
Point
Rel
Hum
%
Delta-T
°C
Wind Press
QNH
hPa
Press
MSL
hPa
Rain
since 9 am
mm
Dir
 
Spd
km/h
Gust
km/h
Spd
kts
Gust
kts
21/04:00pm 14.3 5.9 8.9 70 2.7 NE 43 52 23 28 1026.8 - 0.0
21/03:30pm 14.5 5.5 8.9 69 2.8 NE 46 56 25 30 1027.1 - 0.0
21/03:00pm 14.5 5.0 8.5 67 3.0 NE 48 57 26 31 1027.2 1027.2 0.0
21/02:30pm 14.7 4.8 8.4 66 3.2 NE 50 57 27 31 1027.5 - 0.0
21/02:00pm 14.8 6.1 8.3 65 3.3 NE 44 54 24 29 1028.3 - 0.0
21/01:30pm 15.1 6.0 8.6 65 3.3 NE 46 61 25 33 1028.6 - 0.0
21/01:00pm 15.2 5.8 8.7 65 3.3 NE 48 57 26 31 1028.8 - 0.0
21/12:30pm 15.0 5.9 8.5 65 3.3 NE 46 56 25 30 1028.9 - 0.0
21/12:00pm 15.0 5.5 8.5 65 3.3 NE 48 59 26 32 1028.9 1028.9 0.0
21/11:30am 15.2 4.6 8.4 64 3.4 NE 54 65 29 35 1029.0 - 0.0
21/11:00am 14.9 3.7 8.2 64 3.4 NE 57 69 31 37 1029.0 - 0.0
21/10:30am 14.8 3.1 7.8 63 3.5 NE 59 70 32 38 1029.2 - 0.0
21/10:00am 14.6 2.1 7.6 63 3.5 NE 63 74 34 40 1028.8 - 0.0
21/09:30am 14.6 2.9 7.9 64 3.4 NE 59 72 32 39 1029.0 - 0.0
21/09:00am 14.5 2.5 8.0 65 3.2 NE 61 72 33 39 1028.8 1028.8 0.0
21/08:30am 14.3 1.5 8.0 66 3.2 NE 65 80 35 43 1028.4 - 0.0
21/08:00am 13.9 1.4 7.9 67 3.0 NE 63 74 34 40 1028.1 - 0.0
21/07:30am 13.7 0.4 7.7 67 3.0 NE 67 80 36 43 1027.7 - 0.0
21/07:00am 13.3 0.2 8.4 72 2.5 NE 67 82 36 44 1027.6 - 0.0
21/06:30am 13.0 -0.6 7.9 71 2.5 NE 69 82 37 44 1027.3 - 0.0
21/06:00am 13.1 -0.4 8.2 72 2.4 NE 69 82 37 44 1026.9 1027.0 0.0
21/05:30am 12.9 -1.7 7.6 70 2.6 NE 74 85 40 46 1026.7 - 0.0
21/05:00am 12.8 -0.9 8.1 73 2.3 ENE 70 82 38 44 1026.9 - 0.0
21/04:30am 12.7 -1.1 7.8 72 2.4 NE 70 80 38 43 1026.9 - 0.0
21/04:00am 12.6 -1.3 7.3 70 2.6 NE 70 80 38 43 1027.1 - 0.0
21/03:30am 12.6 -1.2 7.1 69 2.7 ENE 69 82 37 44 1027.7 - 0.0
21/03:00am 12.5 -0.9 7.2 70 2.6 ENE 67 80 36 43 1028.2 1028.2 0.0
21/02:30am 12.5 -1.3 7.2 70 2.6 ENE 69 80 37 43 1028.3 - 0.0
21/02:00am 12.5 -1.9 6.8 68 2.7 ENE 72 83 39 45 1028.5 - 0.0
21/01:30am 12.4 -1.5 6.7 68 2.7 NE 69 78 37 42 1029.0 - 0.0
21/01:00am 12.4 -1.1 6.5 67 2.8 ENE 67 78 36 42 1029.5 - 0.0
21/12:30am 12.3 -0.9 6.4 67 2.8 ENE 65 76 35 41 1030.0 - 0.0
21/12:00am 12.2 -1.1 6.0 66 2.9 ENE 65 72 35 39 1030.3 1030.3 0.0
 
Date/Time
EDT
Temp
°C
App
Temp
°C
Dew
Point
Rel
Hum
%
Delta-T
°C
Wind Press
QNH
hPa
Press
MSL
hPa
Rain
since 9 am
mm
Dir
 
Spd
km/h
Gust
km/h
Spd
kts
Gust
kts
20/11:30pm 12.3 -0.8 6.6 68 2.7 ENE 65 74 35 40 1030.7 - 0.0
20/11:00pm 12.3 -1.4 5.9 65 3.0 ENE 67 74 36 40 1030.7 - 0.0
20/10:30pm 12.2 -0.8 5.6 64 3.1 ENE 63 70 34 38 1030.8 - 0.0
20/10:00pm 12.2 -0.6 6.5 68 2.7 ENE 63 72 34 39 1030.8 - 0.0
20/09:30pm 12.3 -0.7 5.5 63 3.1 ENE 63 72 34 39 1030.7 - 0.0
20/09:00pm 12.2 -0.4 5.4 63 3.1 ENE 61 70 33 38 1030.7 1030.7 0.0
20/08:30pm 12.2 0.5 6.3 67 2.8 ENE 57 67 31 36 1030.6 - 0.0
20/08:00pm 12.2 -0.3 6.0 66 2.9 ENE 61 69 33 37 1030.3 - 0.0
20/07:30pm 12.1 0.0 6.2 67 2.8 ENE 59 69 32 37 1030.4 - 0.0
20/07:00pm 12.1 0.7 6.8 70 2.5 ENE 56 65 30 35 1030.6 - 0.0
20/06:30pm 12.1 0.3 5.7 65 3.0 ENE 57 65 31 35 1030.3 - 0.0
20/06:00pm 12.1 1.0 6.2 67 2.8 ENE 54 61 29 33 1030.4 1030.4 0.0
20/05:30pm 12.1 0.9 5.9 66 2.9 E 54 61 29 33 1030.4 - 0.0
20/05:00pm 12.3 1.1 5.9 65 3.0 E 54 61 29 33 1030.3 - 0.0
20/04:30pm 12.1 0.3 5.7 65 3.0 E 57 63 31 34 1030.2 - 0.0
20/04:00pm 12.1 0.5 5.9 66 2.9 E 56 63 30 34 1030.3 - 0.0
20/03:30pm 12.2 1.1 6.5 68 2.7 ENE 54 61 29 33 1030.6 - 0.0
20/03:00pm 12.0 1.6 5.9 66 2.8 E 50 57 27 31 1030.9 1030.9 0.0
20/02:30pm 12.1 2.0 5.9 66 2.9 E 48 56 26 30 1031.2 - 0.0
20/02:00pm 12.2 2.1 5.6 64 3.1 E 48 57 26 31 1031.1 - 0.0
20/01:30pm 12.1 1.9 5.3 63 3.2 E 48 54 26 29 1031.4 - 0.0
20/01:00pm 12.0 1.8 5.4 64 3.1 ENE 48 56 26 30 1031.4 - 0.0
20/12:30pm 11.8 1.9 5.0 63 3.1 E 46 52 25 28 1031.7 - 0.0
20/12:00pm 12.0 2.3 3.8 57 3.6 E 44 50 24 27 1031.8 1031.8 0.0
20/11:30am 11.7 2.3 4.4 61 3.3 E 43 50 23 27 1032.0 - 0.0
20/11:00am 12.0 2.6 4.5 60 3.4 E 43 52 23 28 1032.2 - 0.0
20/10:30am 12.9 4.1 5.6 61 3.4 E 41 50 22 27 1032.1 - 0.0
20/10:00am 13.1 5.7 4.8 57 3.8 E 33 41 18 22 1032.1 - 0.0
20/09:30am 12.3 4.4 2.2 50 4.4 E 33 37 18 20 1031.9 - 0.0
20/09:00am 12.2 4.4 2.9 53 4.1 E 33 39 18 21 1031.7 1031.7 0.0
20/08:30am 11.8 4.1 3.3 56 3.8 E 33 39 18 21 1031.4 - 0.0
20/08:00am 11.4 4.4 3.9 60 3.4 E 30 39 16 21 1031.2 - 0.0
20/07:30am 11.1 5.1 3.4 59 3.4 ESE 24 30 13 16 1030.9 - 0.0
20/07:00am 10.9 4.8 2.7 57 3.6 ESE 24 32 13 17 1030.5 - 0.0
20/06:30am 10.7 5.0 3.0 59 3.4 ESE 22 30 12 16 1030.2 - 0.0
20/06:00am 10.7 4.2 2.8 58 3.4 SE 26 33 14 18 1029.8 1029.8 0.0
20/05:30am 10.7 4.3 3.0 59 3.4 SE 26 33 14 18 1029.8 - 0.0
20/05:00am 10.6 3.8 2.9 59 3.3 SSE 28 35 15 19 1029.4 - 0.0
20/04:30am 10.6 4.1 2.7 58 3.4 S 26 41 14 22 1028.8 - 0.0
20/04:00am 10.6 5.0 3.4 61 3.2 S 22 35 12 19 1028.7 - 0.0
20/03:30am 10.5 6.0 4.4 66 2.7 S 17 26 9 14 1028.9 - 0.0
20/03:00am 10.6 6.0 3.9 63 3.0 N 17 41 9 22 1028.5 1028.5 0.0
20/02:30am 10.8 4.2 4.3 64 2.9 SW 28 43 15 23 1028.3 - 0.0
20/02:00am 10.9 3.0 4.6 65 2.9 SSW 35 59 19 32 1027.7 - 0.0
20/01:36am 11.0 4.7 5.5 69 2.5 SW 28 46 15 25 1027.8 - 0.0
20/01:30am 11.0 3.2 5.1 67 2.7 SSW 35 46 19 25 1027.5 - 0.0
20/01:01am 11.0 4.8 6.0 71 2.3 SW 28 54 15 29 1027.3 - 0.0
20/01:00am 11.1 5.3 6.3 72 2.3 SW 26 54 14 29 1027.4 - 0.0
20/12:30am 11.1 2.8 6.0 71 2.4 SW 39 63 21 34 1026.8 - 0.0
20/12:13am 11.3 2.6 6.2 71 2.4 SW 41 61 22 33 1026.6 - 0.0
20/12:11am 11.4 6.4 6.3 71 2.4 W 22 67 12 36 1026.5 - 0.0
20/12:00am 11.3 1.2 5.6 68 2.6 SW 48 70 26 38 1026.1 1026.2 0.0
 
Date/Time
EDT
Temp
°C
App
Temp
°C
Dew
Point
Rel
Hum
%
Delta-T
°C
Wind Press
QNH
hPa
Press
MSL
hPa
Rain
since 9 am
mm
Dir
 
Spd
km/h
Gust
km/h
Spd
kts
Gust
kts
19/11:30pm 11.5 1.3 7.0 74 2.2 SW 50 70 27 38 1025.8 - 0.0
19/11:29pm 11.7 2.3 7.2 74 2.2 SW 46 70 25 38 1025.8 - 0.0
19/11:25pm 11.6 2.1 6.9 73 2.3 SW 46 72 25 39 1025.7 - 0.0
19/11:24pm 11.6 4.2 6.9 73 2.3 ESE 35 72 19 39 1025.6 - 0.0
19/11:23pm 11.5 5.1 6.8 73 2.2 E 30 72 16 39 1025.5 - 0.0
19/11:08pm 11.7 2.8 6.8 72 2.3 SW 43 80 23 43 1025.4 - 0.0
19/11:05pm 11.6 3.4 6.7 72 2.3 SW 39 80 21 43 1025.3 - 0.0
19/11:04pm 11.6 -0.7 6.9 73 2.3 SW 61 80 33 43 1025.4 - 0.0
19/11:00pm 11.9 -1.4 7.6 75 2.1 SW 67 80 36 43 1025.5 - 0.0
19/10:32pm 11.8 -1.6 6.9 72 2.4 SW 67 85 36 46 1025.3 - 0.0
19/10:30pm 11.7 -2.1 6.8 72 2.3 SW 69 85 37 46 1025.2 - 0.0
19/10:08pm 11.8 -0.8 7.1 73 2.3 SW 63 82 34 44 1024.8 - 0.0
19/10:00pm 11.9 -1.1 7.4 74 2.2 SW 65 78 35 42 1024.7 - 0.0
19/09:45pm 12.0 -1.1 6.9 71 2.5 SW 65 83 35 45 1024.6 - 0.0
19/09:30pm 12.2 0.5 7.7 74 2.2 SW 59 72 32 39 1024.8 - 0.0
19/09:00pm 12.2 -0.1 8.5 78 1.8 SW 63 72 34 39 1023.5 1023.5 0.0
19/08:30pm 12.3 3.0 9.0 80 1.7 SW 48 69 26 37 1022.8 - 0.0
19/08:18pm 12.3 6.8 9.3 82 1.5 SSW 28 56 15 30 1022.1 - 0.0
19/08:11pm 12.3 7.7 9.5 83 1.4 SSE 24 69 13 37 1021.8 - 0.0
19/08:04pm 12.9 5.5 9.9 82 1.5 SW 39 72 21 39 1021.8 - 0.0
19/08:00pm 13.2 0.8 9.8 80 1.8 SW 65 76 35 41 1022.1 - 0.0
19/07:41pm 13.4 0.1 9.8 79 1.9 WSW 70 76 38 41 1021.1 - 0.0
19/07:33pm 13.3 3.6 10.5 83 1.5 WSW 52 70 28 38 1021.3 - 0.0
19/07:30pm 13.3 4.4 10.5 83 1.5 WSW 48 63 26 34 1021.4 - 0.0
19/07:00pm 13.4 2.8 10.6 83 1.5 WSW 57 70 31 38 1020.8 - 0.0
19/06:38pm 13.5 0.4 10.5 82 1.6 WSW 70 74 38 40 1020.1 - 0.0
19/06:30pm 13.9 5.0 10.7 81 1.7 WSW 48 65 26 35 1020.4 - 0.0
19/06:28pm 13.8 5.2 10.4 80 1.8 WSW 46 65 25 35 1020.4 - 0.0
19/06:00pm 14.6 7.5 11.0 79 1.9 W 39 50 21 27 1019.9 1019.9 0.0
19/05:30pm 14.8 8.5 11.2 79 1.9 W 35 48 19 26 1019.7 - 0.0
19/05:00pm 14.4 8.5 11.0 80 1.8 W 33 48 18 26 1019.1 - 0.0
19/04:30pm 14.5 9.5 10.9 79 1.9 WSW 28 37 15 20 1018.6 - 0.0
19/04:00pm 14.8 10.4 11.8 82 1.6 WSW 26 35 14 19 1018.7 - 0.0
19/03:30pm 14.4 8.8 11.6 83 1.5 WSW 32 41 17 22 1018.8 - 0.0
19/03:00pm 15.2 9.6 11.4 78 2.0 WSW 32 39 17 21 1018.6 1018.6 0.0
19/02:30pm 16.0 10.4 11.6 75 2.4 WSW 32 41 17 22 1018.4 - 0.0
19/02:00pm 15.8 8.9 11.6 76 2.3 WSW 39 43 21 23 1018.3 - 0.0
19/01:30pm 15.9 10.8 11.9 77 2.2 WSW 30 33 16 18 1018.3 - 0.0
19/01:00pm 15.5 9.1 11.9 79 2.0 WSW 37 44 20 24 1018.4 - 0.0
19/12:30pm 16.3 10.1 11.5 73 2.6 SW 35 41 19 22 1018.3 - 0.0
19/12:00pm 18.2 11.5 9.8 58 4.5 W 35 52 19 28 1018.4 1018.4 0.0
19/11:49am 18.8 12.8 8.7 52 5.3 WSW 30 54 16 29 1018.3 - 0.0
19/11:30am 21.3 17.4 7.2 40 7.3 W 17 30 9 16 1018.4 - 0.0
19/11:00am 20.0 17.5 8.0 46 6.2 WSW 11 24 6 13 1018.7 - 0.0
19/10:30am 18.5 16.1 8.7 53 5.1 W 11 20 6 11 1019.1 - 0.0
19/10:00am 17.6 13.1 8.7 56 4.6 W 22 39 12 21 1019.3 - 0.0
19/09:37am 17.8 11.5 8.9 56 4.6 W 32 50 17 27 1019.1 - 0.0
19/09:00am 17.4 11.1 8.8 57 4.4 W 32 50 17 27 1019.1 1019.1 0.0
19/08:59am 17.4 11.1 9.1 58 4.3 W 32 50 17 27 1019.1 - 0.0
19/08:30am 17.5 9.3 8.4 55 4.7 W 41 56 22 30 1019.1 - 0.0
19/08:05am 18.3 12.4 7.4 49 5.5 W 28 54 15 29 1018.9 - 0.0
19/08:00am 18.4 12.7 6.6 46 5.9 W 26 44 14 24 1019.0 - 0.0
19/07:52am 18.4 12.2 6.3 45 6.0 W 28 48 15 26 1018.9 - 0.0
19/07:30am 18.8 14.0 5.6 42 6.5 W 20 33 11 18 1018.7 - 0.0
19/07:00am 19.1 14.4 5.2 40 6.8 W 19 41 10 22 1018.3 - 0.0
19/06:30am 16.9 11.3 8.6 58 4.3 WSW 28 46 15 25 1017.7 - 0.0
19/06:22am 18.0 11.7 7.4 50 5.4 W 30 54 16 29 1017.6 - 0.0
19/06:00am 23.0 15.1 0.8 23 10.2 NNW 32 67 17 36 1017.6 1017.6 0.0
19/05:30am 23.0 15.0 1.4 24 10.1 NNW 33 59 18 32 1017.4 - 0.0
19/05:00am 23.0 15.2 1.4 24 10.1 NNW 32 54 17 29 1017.4 - 0.0
19/04:30am 23.0 14.2 1.4 24 10.1 NNW 37 63 20 34 1017.3 - 0.0
19/04:00am 23.0 13.4 1.4 24 10.1 NNW 41 69 22 37 1017.5 - 0.0
19/03:30am 23.2 13.7 1.5 24 10.2 NNW 41 65 22 35 1017.3 - 0.0
19/03:00am 23.3 13.8 1.6 24 10.2 NNW 41 70 22 38 1017.8 1017.8 0.0
19/02:33am 22.7 14.7 1.7 25 9.8 NNW 33 61 18 33 1018.3 - 0.0
19/02:30am 22.3 14.4 2.4 27 9.4 N 33 46 18 25 1018.4 - 0.0
19/02:10am 21.9 14.3 2.6 28 9.2 N 32 52 17 28 1018.4 - 0.0
19/02:00am 20.9 13.4 3.6 32 8.3 N 32 43 17 23 1018.6 - 0.0
19/01:32am 19.7 13.2 6.4 42 6.7 N 30 48 16 26 1019.0 - 0.0
19/01:30am 20.1 13.0 5.4 38 7.3 N 32 48 17 26 1018.9 - 0.0
19/01:00am 18.5 10.8 8.5 52 5.2 N 39 52 21 28 1018.7 - 0.0
19/12:30am 17.8 11.4 9.2 57 4.5 N 33 46 18 25 1019.6 - 0.0
19/12:17am 16.3 11.2 10.6 69 3.0 NNE 28 46 15 25 1020.0 - 0.0
19/12:00am 15.0 9.0 10.2 73 2.5 NNE 32 39 17 21 1020.6 1020.6 0.0
 
Date/Time
EDT
Temp
°C
App
Temp
°C
Dew
Point
Rel
Hum
%
Delta-T
°C
Wind Press
QNH
hPa
Press
MSL
hPa
Rain
since 9 am
mm
Dir
 
Spd
km/h
Gust
km/h
Spd
kts
Gust
kts
18/11:30pm 14.9 9.1 9.5 70 2.8 NNE 30 37 16 20 1021.3 - 0.0
18/11:00pm 15.0 8.8 8.0 63 3.5 NNE 30 37 16 20 1021.8 - 0.0
18/10:30pm 15.7 9.8 5.6 51 4.9 NNE 26 33 14 18 1022.4 - 0.0
18/10:00pm 16.0 9.6 5.0 48 5.2 NNE 28 39 15 21 1023.0 - 0.0
18/09:30pm 16.1 10.3 6.3 52 4.8 N 26 35 14 19 1023.3 - 0.0
18/09:00pm 14.6 10.0 9.8 73 2.5 NE 24 30 13 16 1023.3 1023.3 0.0
18/08:30pm 14.4 9.2 10.4 77 2.1 NNE 28 32 15 17 1022.9 - 0.0
18/08:00pm 14.8 10.0 11.6 81 1.7 NNE 28 33 15 18 1022.8 - 0.0
18/07:30pm 13.9 10.0 12.1 89 1.0 NNE 24 28 13 15 1022.7 - 0.0
18/07:00pm 14.0 10.4 12.0 88 1.1 NNE 22 24 12 13 1022.9 - 0.0
18/06:30pm 14.2 10.7 12.2 88 1.1 NNE 22 24 12 13 1022.7 - 0.0
18/06:00pm 14.2 10.3 12.1 87 1.1 NE 24 26 13 14 1022.5 1022.5 0.0
18/05:30pm 14.3 10.0 12.2 87 1.1 NE 26 30 14 16 1022.1 - 0.0
18/05:00pm 14.0 10.4 11.9 87 1.1 NE 22 39 12 21 1021.8 - 0.0
18/04:30pm 14.5 10.4 11.6 83 1.6 NNE 24 26 13 14 1022.5 - 0.0

Other Formats:

Comma delimited format used in spreadsheet applications
http://www.bom.gov.au/fwo/IDV60801/IDV60801.94893.axf

JavaScript Object Notation format (JSON) in row-major order
http://www.bom.gov.au/fwo/IDV60801/IDV60801.94893.json